createdAt,value
2022-12-23T00:02:59.376Z,6.93
2022-12-23T00:08:30.844Z,6.87
2022-12-23T00:11:02.501Z,6.95
2022-12-23T00:13:51.334Z,6.85
2022-12-23T00:16:22.971Z,6.66
2022-12-23T00:18:56.332Z,6.67
2022-12-23T00:21:28.006Z,6.72
2022-12-23T00:23:59.446Z,6.76
2022-12-23T00:26:32.881Z,6.78
2022-12-23T00:29:04.405Z,6.81
2022-12-23T00:31:36.125Z,6.77
2022-12-23T00:34:07.628Z,6.76
2022-12-23T00:36:39.312Z,6.82
2022-12-23T00:39:32.276Z,6.85
2022-12-23T00:42:52.421Z,6.77
2022-12-23T00:47:13.691Z,6.80
2022-12-23T00:48:42.901Z,6.83
2022-12-23T00:51:14.403Z,6.83
2022-12-23T00:53:46.016Z,6.97
2022-12-23T00:56:17.694Z,6.92
2022-12-23T00:58:49.337Z,6.98
2022-12-23T01:01:38.179Z,7.02
2022-12-23T01:04:28.702Z,6.98
2022-12-23T01:07:54.554Z,7.03
2022-12-23T01:11:19.021Z,7.15
2022-12-23T01:17:41.099Z,7.15
2022-12-23T01:18:07.204Z,7.13
2022-12-23T01:21:31.113Z,7.20
2022-12-23T01:24:56.544Z,7.23
2022-12-23T01:28:22.688Z,7.25
2022-12-23T01:31:16.908Z,7.22
2022-12-23T01:34:35.995Z,7.39
2022-12-23T01:37:08.817Z,7.47
2022-12-23T01:39:40.571Z,7.49
2022-12-23T01:42:33.962Z,7.37
2022-12-23T01:45:15.246Z,7.30
2022-12-23T01:47:51.141Z,7.24
2022-12-23T01:50:27.494Z,7.31
2022-12-23T01:53:08.088Z,7.51
2022-12-23T01:55:47.057Z,7.42
2022-12-23T02:00:32.364Z,7.41
2022-12-23T02:02:22.435Z,7.46
2022-12-23T02:05:08.753Z,7.54
2022-12-23T02:08:05.201Z,7.51
2022-12-23T02:11:05.242Z,7.44
2022-12-23T02:14:22.296Z,7.32
2022-12-23T02:17:04.286Z,7.39
2022-12-23T02:19:58.792Z,7.48
2022-12-23T02:22:47.971Z,7.51
2022-12-23T02:26:03.134Z,7.47
2022-12-23T02:29:07.182Z,7.44
2022-12-23T02:31:46.159Z,7.58
2022-12-23T02:34:22.682Z,7.74
2022-12-23T02:37:06.897Z,7.71
2022-12-23T02:39:44.604Z,7.62
2022-12-23T02:42:19.826Z,7.57
2022-12-23T02:45:00.595Z,7.59
2022-12-23T02:47:39.309Z,7.55
2022-12-23T02:50:17.025Z,7.61
2022-12-23T02:52:51.735Z,7.73
2022-12-23T02:55:28.918Z,7.70
2022-12-23T02:58:02.978Z,7.70
2022-12-23T03:00:34.743Z,7.74
2022-12-23T03:03:07.085Z,7.71
2022-12-23T03:05:43.996Z,7.72
2022-12-23T03:08:20.412Z,7.78
2022-12-23T03:13:01.895Z,7.73
2022-12-23T03:14:45.623Z,7.74
2022-12-23T03:17:35.086Z,7.84
2022-12-23T03:20:13.940Z,7.89
2022-12-23T03:22:53.588Z,7.83
2022-12-23T03:25:32.224Z,7.72
2022-12-23T03:28:10.719Z,7.62
2022-12-23T03:30:44.783Z,7.49
2022-12-23T03:33:33.209Z,7.40
2022-12-23T03:37:33.822Z,7.36
2022-12-23T03:39:50.528Z,7.47
2022-12-23T03:46:20.329Z,7.45
2022-12-23T03:46:30.387Z,7.53
2022-12-23T03:49:07.801Z,7.55
2022-12-23T03:51:47.562Z,7.53
2022-12-23T03:54:28.077Z,7.49
2022-12-23T03:57:04.058Z,7.49
2022-12-23T03:59:38.850Z,7.41
2022-12-23T04:02:12.778Z,7.38
2022-12-23T04:05:00.903Z,7.43
2022-12-23T04:07:36.629Z,7.42
2022-12-23T04:10:10.578Z,7.36
2022-12-23T04:12:43.173Z,7.35
2022-12-23T04:15:15.377Z,7.27
2022-12-23T04:17:47.788Z,7.20
2022-12-23T04:20:19.923Z,7.16
2022-12-23T04:22:51.505Z,7.18
2022-12-23T04:25:23.125Z,7.05
2022-12-23T04:27:54.554Z,6.99
2022-12-23T04:38:12.983Z,7.31
2022-12-23T04:40:46.997Z,7.42
2022-12-23T04:43:18.673Z,7.45
2022-12-23T04:45:53.595Z,7.33
2022-12-23T04:48:25.370Z,7.33
2022-12-23T04:50:57.075Z,7.22
2022-12-23T04:53:28.811Z,7.21
2022-12-23T04:56:00.418Z,7.09
2022-12-23T04:58:31.960Z,6.99
2022-12-23T05:01:09.043Z,6.85
2022-12-23T05:03:41.806Z,6.84
2022-12-23T05:06:13.413Z,6.91
2022-12-23T05:09:00.084Z,6.87
2022-12-23T05:11:48.032Z,6.81
2022-12-23T05:14:25.283Z,6.80
2022-12-23T05:17:23.678Z,6.74
2022-12-23T05:20:22.185Z,6.75
2022-12-23T05:23:05.686Z,6.88
2022-12-23T05:25:49.746Z,7.04
2022-12-23T05:28:28.942Z,6.97
2022-12-23T05:32:24.697Z,6.94
2022-12-23T05:34:18.247Z,6.95
2022-12-23T05:36:57.400Z,6.93
2022-12-23T05:39:56.223Z,6.83
2022-12-23T05:44:57.945Z,6.77
2022-12-23T05:45:44.398Z,6.77
2022-12-23T05:49:19.730Z,6.81
2022-12-23T05:52:23.993Z,6.74
2022-12-23T05:55:26.765Z,6.76
2022-12-23T05:58:37.891Z,6.74
2022-12-23T06:01:02.581Z,6.85
2022-12-23T06:03:34.466Z,6.77
2022-12-23T06:06:09.580Z,6.75
2022-12-23T06:08:41.428Z,6.67
2022-12-23T06:11:15.833Z,6.53
2022-12-23T06:13:47.692Z,6.33
2022-12-23T06:16:19.581Z,6.31
2022-12-23T06:19:08.398Z,6.30
2022-12-23T06:21:45.219Z,6.27
2022-12-23T06:24:29.244Z,6.19
2022-12-23T06:27:21.889Z,6.06
2022-12-23T06:30:15.935Z,5.96
2022-12-23T06:33:00.534Z,6.02
2022-12-23T06:35:42.766Z,6.09
2022-12-23T06:38:19.240Z,6.14
2022-12-23T06:40:51.818Z,6.02
2022-12-23T06:43:23.696Z,5.95
2022-12-23T06:45:55.824Z,5.95
2022-12-23T06:48:29.224Z,5.92
2022-12-23T06:51:00.967Z,6.14
2022-12-23T06:53:32.846Z,6.13
2022-12-23T06:56:06.205Z,6.14
2022-12-23T06:58:38.023Z,6.11
2022-12-23T07:01:10.337Z,6.10
2022-12-23T07:07:22.943Z,6.29
2022-12-23T07:09:54.775Z,6.31
2022-12-23T07:12:26.433Z,6.31
2022-12-23T07:14:58.221Z,6.26
2022-12-23T07:17:35.164Z,6.34
2022-12-23T07:20:07.960Z,6.40
2022-12-23T07:22:40.856Z,6.29
2022-12-23T07:25:13.893Z,6.35
2022-12-23T07:27:45.865Z,6.44
2022-12-23T07:30:18.730Z,6.53
2022-12-23T07:32:52.746Z,6.46
2022-12-23T07:35:24.492Z,6.42
2022-12-23T07:38:06.284Z,6.47
2022-12-23T07:40:45.111Z,6.48
2022-12-23T07:43:17.100Z,6.56
2022-12-23T07:45:51.329Z,6.59
2022-12-23T07:48:27.753Z,6.55
2022-12-23T07:51:10.303Z,6.52
2022-12-23T07:53:41.813Z,6.53
2022-12-23T07:56:13.602Z,6.78
2022-12-23T07:58:45.352Z,6.80
2022-12-23T08:01:17.226Z,6.64
2022-12-23T08:03:50.247Z,6.60
2022-12-23T08:06:21.906Z,6.76
2022-12-23T08:08:54.778Z,6.78
2022-12-23T08:11:26.239Z,6.74
2022-12-23T08:13:57.833Z,6.72
2022-12-23T08:16:29.320Z,6.97
2022-12-23T08:19:01.076Z,7.12
2022-12-23T08:21:33.465Z,7.11
2022-12-23T08:24:05.361Z,7.16
2022-12-23T08:26:37.298Z,7.19
2022-12-23T08:29:08.729Z,7.14
2022-12-23T08:31:40.451Z,7.19
2022-12-23T08:34:14.725Z,7.18
2022-12-23T08:36:50.280Z,7.25
2022-12-23T08:39:26.153Z,7.26
2022-12-23T08:41:58.723Z,7.31
2022-12-23T08:44:31.476Z,7.29
2022-12-23T08:47:15.241Z,7.27
2022-12-23T08:50:09.352Z,7.27
2022-12-23T08:53:06.599Z,7.24
2022-12-23T08:55:58.101Z,7.25
2022-12-23T08:58:31.877Z,7.30
2022-12-23T09:01:08.997Z,7.36
2022-12-23T09:03:41.909Z,7.30
2022-12-23T09:06:16.384Z,7.33
2022-12-23T09:08:48.551Z,7.29
2022-12-23T09:11:23.714Z,7.28
2022-12-23T09:13:58.804Z,7.32
2022-12-23T09:16:31.670Z,7.39
2022-12-23T09:19:03.706Z,7.42
2022-12-23T09:21:35.604Z,7.44
2022-12-23T09:24:08.948Z,7.42
2022-12-23T09:26:44.776Z,7.48
2022-12-23T09:29:21.971Z,7.54
2022-12-23T09:31:56.978Z,7.50
2022-12-23T09:34:30.702Z,7.51
2022-12-23T09:37:07.569Z,7.73
2022-12-23T09:39:40.369Z,7.73
2022-12-23T09:42:30.798Z,7.73
2022-12-23T09:45:18.705Z,7.61
2022-12-23T09:47:51.162Z,7.54
2022-12-23T09:50:29.152Z,7.59
2022-12-23T09:53:05.741Z,7.53
2022-12-23T09:55:50.262Z,7.59
2022-12-23T09:58:31.066Z,7.56
2022-12-23T10:01:17.570Z,7.52
2022-12-23T10:04:10.891Z,7.60
2022-12-23T10:06:49.178Z,7.54
2022-12-23T10:09:23.042Z,7.34
2022-12-23T10:11:54.994Z,7.39
2022-12-23T10:14:33.873Z,7.42
2022-12-23T10:17:12.850Z,7.52
2022-12-23T10:19:48.427Z,7.61
2022-12-23T10:22:24.852Z,7.66
2022-12-23T10:25:00.306Z,7.67
2022-12-23T10:27:36.011Z,7.57
2022-12-23T10:30:49.472Z,7.49
2022-12-23T10:33:14.375Z,7.54
2022-12-23T10:35:59.278Z,7.51
2022-12-23T10:38:53.448Z,7.50
2022-12-23T10:41:39.568Z,7.55
2022-12-23T10:44:28.727Z,7.62
2022-12-23T10:47:12.261Z,7.75
2022-12-23T10:49:54.625Z,7.90
2022-12-23T10:52:29.279Z,8.01
2022-12-23T10:55:00.974Z,7.95
2022-12-23T10:57:33.530Z,7.93
2022-12-23T11:00:11.603Z,7.86
2022-12-23T11:03:00.992Z,7.90
2022-12-23T11:05:35.220Z,8.13
2022-12-23T11:08:07.405Z,8.17
2022-12-23T11:10:41.059Z,8.27
2022-12-23T11:13:12.593Z,8.36
2022-12-23T11:15:45.195Z,8.29
2022-12-23T11:18:23.227Z,8.28
2022-12-23T11:21:16.274Z,8.37
2022-12-23T11:23:47.911Z,8.59
2022-12-23T11:26:22.046Z,8.57
2022-12-23T11:29:00.670Z,8.60
2022-12-23T11:31:35.694Z,8.56
2022-12-23T11:34:18.853Z,8.52
2022-12-23T11:37:06.974Z,8.42
2022-12-23T11:39:49.058Z,8.37
2022-12-23T11:42:27.599Z,8.45
2022-12-23T11:45:01.801Z,8.46
2022-12-23T11:47:41.498Z,8.52
2022-12-23T11:50:30.932Z,8.62
2022-12-23T11:53:14.960Z,8.74
2022-12-23T11:55:59.866Z,8.71
2022-12-23T11:58:37.174Z,8.76
2022-12-23T12:02:09.444Z,8.75
2022-12-23T12:05:11.087Z,8.69
2022-12-23T12:15:14.547Z,8.59
2022-12-23T12:18:35.925Z,8.68
2022-12-23T12:21:42.691Z,8.60
2022-12-23T12:28:10.771Z,8.50
2022-12-23T12:31:18.716Z,8.26
2022-12-23T12:34:30.251Z,8.33
2022-12-23T12:37:40.993Z,8.33
2022-12-23T12:40:47.369Z,8.50
2022-12-23T12:43:36.665Z,8.52
2022-12-23T12:46:35.150Z,8.32
2022-12-23T12:52:38.098Z,8.23
2022-12-23T12:55:30.222Z,8.17
2022-12-23T12:58:28.428Z,8.22
2022-12-23T13:01:43.653Z,8.08
2022-12-23T13:05:19.954Z,8.15
2022-12-23T13:08:08.121Z,8.02
2022-12-23T13:10:55.456Z,8.09
2022-12-23T13:13:37.194Z,8.04
2022-12-23T13:16:18.852Z,7.96
2022-12-23T13:18:57.540Z,8.00
2022-12-23T13:21:34.910Z,8.19
2022-12-23T13:24:19.240Z,8.31
2022-12-23T13:26:59.331Z,8.49
2022-12-23T13:29:58.245Z,8.48
2022-12-23T13:32:51.026Z,8.35
2022-12-23T13:35:35.738Z,8.55
2022-12-23T13:38:24.269Z,8.46
2022-12-23T13:41:06.182Z,8.41
2022-12-23T13:43:50.200Z,8.38
2022-12-23T13:46:37.370Z,8.32
2022-12-23T13:52:50.311Z,8.24
2022-12-23T13:59:18.587Z,8.08
2022-12-23T14:02:29.898Z,8.08
2022-12-23T14:05:14.757Z,8.01
2022-12-23T14:08:35.005Z,7.89
2022-12-23T14:12:01.080Z,7.93
2022-12-23T14:14:38.693Z,8.01
2022-12-23T14:17:17.900Z,8.13
2022-12-23T14:20:10.743Z,8.17
2022-12-23T14:22:57.081Z,8.22
2022-12-23T14:25:58.482Z,8.18
2022-12-23T14:28:49.641Z,8.15
2022-12-23T14:31:41.094Z,8.22
2022-12-23T14:37:36.372Z,8.16
2022-12-23T14:40:42.849Z,8.24
2022-12-23T14:43:37.422Z,8.31
2022-12-23T14:47:05.450Z,8.33
2022-12-23T14:49:43.348Z,8.40
2022-12-23T14:52:54.202Z,8.32
2022-12-23T14:55:48.797Z,8.29
2022-12-23T14:59:02.001Z,8.17
2022-12-23T15:01:41.255Z,8.06
2022-12-23T15:04:20.502Z,8.14
2022-12-23T15:06:56.135Z,8.20
2022-12-23T15:09:31.607Z,8.17
2022-12-23T15:12:08.164Z,8.25
2022-12-23T15:14:46.186Z,8.28
2022-12-23T15:17:46.788Z,8.19
2022-12-23T15:21:19.587Z,8.11
2022-12-23T15:24:37.285Z,8.08
2022-12-23T15:31:33.201Z,8.52
2022-12-23T15:34:18.813Z,8.53
2022-12-23T15:37:14.503Z,8.33
2022-12-23T15:39:47.366Z,8.28
2022-12-23T15:42:27.393Z,8.31
2022-12-23T15:44:59.314Z,8.26
2022-12-23T15:47:38.896Z,8.26
2022-12-23T15:50:19.451Z,8.23
2022-12-23T15:52:52.273Z,8.26
2022-12-23T15:55:45.675Z,8.25
2022-12-23T15:58:26.127Z,8.25
2022-12-23T16:00:59.581Z,8.20
2022-12-23T16:03:46.571Z,8.21
2022-12-23T16:06:39.329Z,8.18
2022-12-23T16:09:54.447Z,8.16
2022-12-23T16:12:28.505Z,8.13
2022-12-23T16:15:02.226Z,8.10
2022-12-23T16:17:38.361Z,8.08
2022-12-23T16:20:24.294Z,8.04
2022-12-23T16:22:58.824Z,8.12
2022-12-23T16:25:33.798Z,8.28
2022-12-23T16:28:09.167Z,8.38
2022-12-23T16:30:43.188Z,8.33
2022-12-23T16:33:33.519Z,8.33
2022-12-23T16:36:20.242Z,8.24
2022-12-23T16:38:53.509Z,8.29
2022-12-23T16:41:25.109Z,8.36
2022-12-23T16:43:56.551Z,8.36
2022-12-23T16:46:29.382Z,8.25
2022-12-23T16:49:04.917Z,8.28
2022-12-23T16:51:37.610Z,8.24
2022-12-23T16:54:49.758Z,8.28
2022-12-23T16:57:33.265Z,8.44
2022-12-23T17:00:26.666Z,8.48
2022-12-23T17:13:46.175Z,8.69
2022-12-23T17:16:24.712Z,8.79
2022-12-23T17:18:56.377Z,8.87
2022-12-23T17:21:37.651Z,8.83
2022-12-23T17:24:21.430Z,8.79
2022-12-23T17:26:53.796Z,8.72
2022-12-23T17:29:25.987Z,8.78
2022-12-23T17:32:12.122Z,8.71
2022-12-23T17:35:33.580Z,8.64
2022-12-23T17:41:33.582Z,8.82
2022-12-23T17:47:43.871Z,8.80
2022-12-23T17:50:28.359Z,8.77
2022-12-23T17:53:17.705Z,8.88
2022-12-23T17:55:49.344Z,8.89
2022-12-23T17:58:20.941Z,8.76
2022-12-23T18:00:52.803Z,8.77
2022-12-23T18:03:26.541Z,8.85
2022-12-23T18:06:01.974Z,8.86
2022-12-23T18:08:34.241Z,8.87
2022-12-23T18:11:06.527Z,8.90
2022-12-23T18:13:38.396Z,8.93
2022-12-23T18:16:12.499Z,9.08
2022-12-23T18:18:46.831Z,9.18
2022-12-23T18:21:25.357Z,9.12
2022-12-23T18:24:00.245Z,9.18
2022-12-23T18:26:34.584Z,9.14
2022-12-23T18:29:06.205Z,9.01
2022-12-23T18:31:50.007Z,8.93
2022-12-23T18:34:25.330Z,8.94
2022-12-23T18:37:43.577Z,8.91
2022-12-23T18:40:32.710Z,8.86
2022-12-23T18:50:44.826Z,9.09
2022-12-23T19:00:13.995Z,9.04
2022-12-23T19:03:05.678Z,8.95
2022-12-23T19:05:48.629Z,8.87
2022-12-23T19:08:26.296Z,8.82
2022-12-23T19:11:26.676Z,8.78
2022-12-23T19:14:16.837Z,8.85
2022-12-23T19:16:51.879Z,8.91
2022-12-23T19:19:26.361Z,8.94
2022-12-23T19:29:24.146Z,8.73
2022-12-23T19:38:27.462Z,8.57
2022-12-23T19:41:01.834Z,8.62
2022-12-23T19:43:33.964Z,8.57
2022-12-23T19:46:07.823Z,8.49
2022-12-23T19:48:44.351Z,8.52
2022-12-23T19:51:17.543Z,8.61
2022-12-23T19:53:53.857Z,8.65
2022-12-23T19:56:26.346Z,8.73
2022-12-23T19:58:59.599Z,8.70
2022-12-23T20:01:32.747Z,8.63
2022-12-23T20:04:04.641Z,8.72
2022-12-23T20:06:38.642Z,8.75
2022-12-23T20:09:11.775Z,8.73
2022-12-23T20:11:45.627Z,8.72
2022-12-23T20:14:18.985Z,8.74
2022-12-23T20:16:51.623Z,8.65
2022-12-23T20:19:24.389Z,8.66
2022-12-23T20:21:56.721Z,8.78
2022-12-23T20:24:28.795Z,8.80
2022-12-23T20:27:00.459Z,8.82
2022-12-23T20:29:32.935Z,8.82
2022-12-23T20:32:04.888Z,8.80
2022-12-23T20:34:46.512Z,8.76
2022-12-23T20:37:19.069Z,8.76
2022-12-23T20:39:51.202Z,8.70
2022-12-23T20:42:24.184Z,8.68
2022-12-23T20:44:56.085Z,8.79
2022-12-23T20:47:28.000Z,8.88
2022-12-23T20:49:59.582Z,8.91
2022-12-23T20:52:31.191Z,8.94
2022-12-23T20:55:03.042Z,8.88
2022-12-23T20:57:36.125Z,8.86
2022-12-23T21:00:08.927Z,8.75
2022-12-23T21:02:41.135Z,8.76
2022-12-23T21:05:13.233Z,8.80
2022-12-23T21:07:44.804Z,8.73
2022-12-23T21:10:16.684Z,8.69
2022-12-23T21:12:48.646Z,8.65
2022-12-23T21:15:21.379Z,8.71
2022-12-23T21:17:53.067Z,8.59
2022-12-23T21:20:25.089Z,8.51
2022-12-23T21:22:56.759Z,8.59
2022-12-23T21:25:28.707Z,8.71
2022-12-23T21:28:00.422Z,8.75
2022-12-23T21:30:32.127Z,8.67
2022-12-23T21:33:03.882Z,8.60
2022-12-23T21:35:36.558Z,8.53
2022-12-23T21:38:08.251Z,8.45
2022-12-23T21:40:39.952Z,8.41
2022-12-23T21:43:11.786Z,8.38
2022-12-23T21:45:44.110Z,8.44
2022-12-23T21:48:15.808Z,8.54
2022-12-23T21:50:47.542Z,8.57
2022-12-23T21:53:19.210Z,8.54
2022-12-23T21:55:50.976Z,8.53
2022-12-23T21:58:22.555Z,8.44
2022-12-23T22:00:54.427Z,8.42
2022-12-23T22:03:26.379Z,8.49
2022-12-23T22:06:10.248Z,8.51
2022-12-23T22:08:43.890Z,8.44
2022-12-23T22:11:18.364Z,8.44
2022-12-23T22:13:50.065Z,8.45
2022-12-23T22:16:25.317Z,8.52
2022-12-23T22:18:58.197Z,8.51
2022-12-23T22:21:31.447Z,8.49
2022-12-23T22:24:04.717Z,8.51
2022-12-23T22:26:37.474Z,8.46
2022-12-23T22:29:09.480Z,8.54
2022-12-23T22:31:45.676Z,8.52
2022-12-23T22:34:19.256Z,8.60
2022-12-23T22:36:51.435Z,8.54
2022-12-23T22:39:24.235Z,8.49
2022-12-23T22:41:55.909Z,8.49
2022-12-23T22:44:27.515Z,8.56
2022-12-23T22:46:59.306Z,8.50
2022-12-23T22:49:31.126Z,8.36
2022-12-23T22:52:02.642Z,8.25
2022-12-23T22:54:34.405Z,8.28
2022-12-23T22:57:06.563Z,8.19
2022-12-23T22:59:38.619Z,8.17
2022-12-23T23:02:10.421Z,8.10
2022-12-23T23:04:43.010Z,8.00
2022-12-23T23:07:15.530Z,7.95
2022-12-23T23:09:51.099Z,7.93
2022-12-23T23:12:23.157Z,7.84
2022-12-23T23:14:55.148Z,7.94
2022-12-23T23:17:29.181Z,8.00
2022-12-23T23:20:01.199Z,8.08
2022-12-23T23:22:42.420Z,8.15
2022-12-23T23:25:17.060Z,8.15
2022-12-23T23:27:49.758Z,8.13
2022-12-23T23:30:21.664Z,8.12
2022-12-23T23:32:53.400Z,8.04
2022-12-23T23:35:25.051Z,7.96
2022-12-23T23:37:56.578Z,7.98
2022-12-23T23:40:28.809Z,8.08
2022-12-23T23:43:00.820Z,8.12
2022-12-23T23:45:32.399Z,8.03
2022-12-23T23:48:03.959Z,7.98
2022-12-23T23:50:35.388Z,8.02
2022-12-23T23:53:06.935Z,7.98
2022-12-23T23:55:38.514Z,7.94
2022-12-23T23:58:10.698Z,8.04
